createdAt,value
2023-11-05T00:02:11.013Z,96782.25
2023-11-05T00:04:37.231Z,96773.91
2023-11-05T00:07:03.552Z,96769.56
2023-11-05T00:09:29.758Z,96770.34
2023-11-05T00:11:55.959Z,96768.38
2023-11-05T00:14:22.163Z,96762.81
2023-11-05T00:16:48.373Z,96773.13
2023-11-05T00:19:14.593Z,96777.88
2023-11-05T00:21:40.812Z,96762.03
2023-11-05T00:24:06.995Z,96778.69
2023-11-05T00:26:33.162Z,96770.34
2023-11-05T00:28:59.371Z,96779.47
2023-11-05T00:31:25.586Z,96765.19
2023-11-05T00:33:51.950Z,96750.91
2023-11-05T00:36:18.201Z,96742.97
2023-11-05T00:38:44.494Z,96746.16
2023-11-05T00:41:10.710Z,96746.56
2023-11-05T00:43:36.886Z,96748.13
2023-11-05T00:46:03.113Z,96746.53
2023-11-05T00:48:29.318Z,96733.06
2023-11-05T00:50:56.562Z,96729.50
2023-11-05T00:53:22.776Z,96733.47
2023-11-05T00:55:48.960Z,96739.81
2023-11-05T00:58:15.152Z,96733.47
2023-11-05T01:00:41.365Z,96727.94
2023-11-05T01:03:07.694Z,96719.19
2023-11-05T01:05:33.944Z,96716.44
2023-11-05T01:08:00.120Z,96716.44
2023-11-05T01:10:26.297Z,96714.47
2023-11-05T01:12:52.548Z,96704.13
2023-11-05T01:15:18.857Z,96705.31
2023-11-05T01:17:45.117Z,96709.69
2023-11-05T01:20:11.309Z,96692.25
2023-11-05T01:22:37.538Z,96699.38
2023-11-05T01:25:03.912Z,96692.69
2023-11-05T01:27:30.162Z,96698.59
2023-11-05T01:29:56.347Z,96693.44
2023-11-05T01:32:22.548Z,96698.19
2023-11-05T01:34:48.744Z,96687.53
2023-11-05T01:37:14.999Z,96683.16
2023-11-05T01:39:41.217Z,96687.53
2023-11-05T01:42:07.385Z,96685.13
2023-11-05T01:44:33.565Z,96678.00
2023-11-05T01:46:59.725Z,96686.75
2023-11-05T01:49:25.944Z,96678.00
2023-11-05T01:51:52.161Z,96681.16
2023-11-05T01:54:18.367Z,96683.53
2023-11-05T01:56:44.622Z,96685.94
2023-11-05T01:59:10.796Z,96684.72
2023-11-05T02:01:36.995Z,96674.03
2023-11-05T02:04:03.320Z,96674.47
2023-11-05T02:06:29.513Z,96682.41
2023-11-05T02:08:55.672Z,96672.50
2023-11-05T02:11:21.850Z,96668.97
2023-11-05T02:13:48.035Z,96657.88
2023-11-05T02:16:14.252Z,96659.06
2023-11-05T02:18:40.449Z,96648.41
2023-11-05T02:21:06.645Z,96645.66
2023-11-05T02:23:32.828Z,96647.63
2023-11-05T02:25:59.019Z,96632.97
2023-11-05T02:28:25.225Z,96633.38
2023-11-05T02:30:51.441Z,96633.78
2023-11-05T02:33:17.651Z,96624.28
2023-11-05T02:35:43.856Z,96627.06
2023-11-05T02:38:10.032Z,96619.94
2023-11-05T02:40:36.248Z,96611.63
2023-11-05T02:43:02.542Z,96615.56
2023-11-05T02:45:28.820Z,96621.13
2023-11-05T02:47:55.112Z,96604.06
2023-11-05T02:50:21.473Z,96604.88
2023-11-05T02:52:47.714Z,96610.44
2023-11-05T02:55:13.912Z,96610.00
2023-11-05T02:57:40.120Z,96605.28
2023-11-05T03:00:06.286Z,96602.50
2023-11-05T03:02:32.545Z,96593.38
2023-11-05T03:04:58.858Z,96591.00
2023-11-05T03:07:25.184Z,96586.66
2023-11-05T03:09:51.370Z,96591.00
2023-11-05T03:12:17.717Z,96582.31
2023-11-05T03:14:43.891Z,96575.19
2023-11-05T03:17:10.343Z,96577.53
2023-11-05T03:19:36.523Z,96570.03
2023-11-05T03:22:02.904Z,96572.00
2023-11-05T03:24:29.103Z,96572.41
2023-11-05T03:26:55.273Z,96566.44
2023-11-05T03:29:21.438Z,96564.88
2023-11-05T03:31:47.633Z,96562.47
2023-11-05T03:34:13.863Z,96561.28
2023-11-05T03:36:40.040Z,96567.22
2023-11-05T03:39:06.215Z,96556.53
2023-11-05T03:41:32.406Z,96562.47
2023-11-05T03:43:58.566Z,96560.09
2023-11-05T03:46:24.769Z,96552.16
2023-11-05T03:48:50.965Z,96552.16
2023-11-05T03:51:17.202Z,96556.91
2023-11-05T03:53:43.386Z,96552.94
2023-11-05T03:56:09.654Z,96560.06
2023-11-05T03:58:35.928Z,96548.97
2023-11-05T04:01:02.107Z,96556.09
2023-11-05T04:03:28.406Z,96543.41
2023-11-05T04:05:54.608Z,96552.94
2023-11-05T04:08:20.791Z,96545.00
2023-11-05T04:10:46.974Z,96541.44
2023-11-05T04:13:13.187Z,96537.09
2023-11-05T04:15:39.336Z,96535.50
2023-11-05T04:18:05.558Z,96533.53
2023-11-05T04:20:31.836Z,96541.84
2023-11-05T04:22:58.005Z,96523.63
2023-11-05T04:25:24.205Z,96530.75
2023-11-05T04:27:50.409Z,96533.91
2023-11-05T04:30:16.603Z,96532.31
2023-11-05T04:32:42.889Z,96526.75
2023-11-05T04:35:09.074Z,96528.31
2023-11-05T04:37:35.270Z,96530.28
2023-11-05T04:40:01.470Z,96536.22
2023-11-05T04:42:27.645Z,96538.94
2023-11-05T04:44:53.810Z,96531.44
2023-11-05T04:47:20.013Z,96532.63
2023-11-05T04:49:46.235Z,96523.50
2023-11-05T04:52:12.495Z,96534.97
2023-11-05T04:54:38.670Z,96545.28
2023-11-05T04:57:04.867Z,96541.72
2023-11-05T04:59:31.044Z,96537.75
2023-11-05T05:01:57.195Z,96547.25
2023-11-05T05:04:23.399Z,96548.81
2023-11-05T05:06:49.636Z,96550.78
2023-11-05T05:09:15.807Z,96548.00
2023-11-05T05:11:41.978Z,96557.53
2023-11-05T05:14:08.163Z,96559.13
2023-11-05T05:16:34.390Z,96548.78
2023-11-05T05:19:00.626Z,96548.78
2023-11-05T05:21:26.825Z,96545.63
2023-11-05T05:23:52.993Z,96555.13
2023-11-05T05:26:20.516Z,96555.13
2023-11-05T05:28:46.968Z,96548.81
2023-11-05T05:31:13.179Z,96551.97
2023-11-05T05:33:39.368Z,96536.94
2023-11-05T05:36:05.518Z,96533.78
2023-11-05T05:38:31.750Z,96527.47
2023-11-05T05:40:57.904Z,96540.16
2023-11-05T05:43:24.095Z,96540.97
2023-11-05T05:45:50.350Z,96545.69
2023-11-05T05:48:16.570Z,96548.09
2023-11-05T05:50:42.803Z,96552.06
2023-11-05T05:53:09.016Z,96555.25
2023-11-05T05:55:35.266Z,96553.69
2023-11-05T05:58:01.451Z,96558.03
2023-11-05T06:00:27.645Z,96560.81
2023-11-05T06:02:53.990Z,96559.19
2023-11-05T06:05:20.247Z,96558.00
2023-11-05T06:07:46.464Z,96561.19
2023-11-05T06:10:12.679Z,96566.31
2023-11-05T06:12:38.908Z,96566.31
2023-11-05T06:15:11.323Z,96567.88
2023-11-05T06:17:38.670Z,96567.06
2023-11-05T06:20:04.956Z,96563.91
2023-11-05T06:22:31.144Z,96569.84
2023-11-05T06:24:57.351Z,96575.00
2023-11-05T06:27:23.513Z,96575.81
2023-11-05T06:29:49.698Z,96577.75
2023-11-05T06:32:15.865Z,96586.09
2023-11-05T06:34:42.098Z,96576.56
2023-11-05T06:37:08.279Z,96584.47
2023-11-05T06:39:34.573Z,96584.06
2023-11-05T06:42:00.723Z,96591.59
2023-11-05T06:44:26.906Z,96596.38
2023-11-05T06:46:54.324Z,96592.00
2023-11-05T06:49:20.755Z,96604.28
2023-11-05T06:51:46.932Z,96608.22
2023-11-05T06:54:13.130Z,96603.47
2023-11-05T06:56:39.328Z,96607.03
2023-11-05T06:59:05.565Z,96615.38
2023-11-05T07:01:31.801Z,96607.03
2023-11-05T07:03:58.056Z,96619.34
2023-11-05T07:06:24.307Z,96617.75
2023-11-05T07:08:50.475Z,96627.25
2023-11-05T07:11:16.652Z,96624.09
2023-11-05T07:13:42.860Z,96629.25
2023-11-05T07:16:09.104Z,96629.66
2023-11-05T07:18:35.352Z,96636.34
2023-11-05T07:21:01.629Z,96633.59
2023-11-05T07:23:27.847Z,96639.97
2023-11-05T07:25:54.029Z,96645.88
2023-11-05T07:28:20.216Z,96649.44
2023-11-05T07:30:46.442Z,96659.75
2023-11-05T07:33:12.609Z,96661.34
2023-11-05T07:35:38.810Z,96657.38
2023-11-05T07:38:04.981Z,96670.06
2023-11-05T07:40:31.189Z,96667.66
2023-11-05T07:42:57.372Z,96669.25
2023-11-05T07:45:23.553Z,96669.25
2023-11-05T07:47:50.267Z,96680.34
2023-11-05T07:50:16.476Z,96678.75
2023-11-05T07:52:42.788Z,96682.34
2023-11-05T07:55:09.012Z,96682.34
2023-11-05T07:57:35.186Z,96696.22
2023-11-05T08:00:01.375Z,96698.19
2023-11-05T08:02:27.564Z,96678.75
2023-11-05T08:04:53.817Z,96693.03
2023-11-05T08:07:20.079Z,96697.78
2023-11-05T08:09:46.332Z,96691.44
2023-11-05T08:12:12.525Z,96694.19
2023-11-05T08:14:38.710Z,96697.34
2023-11-05T08:17:04.897Z,96704.88
2023-11-05T08:19:31.095Z,96713.56
2023-11-05T08:21:57.345Z,96717.88
2023-11-05T08:24:23.522Z,96719.03
2023-11-05T08:26:49.700Z,96726.91
2023-11-05T08:29:16.060Z,96720.88
2023-11-05T08:31:44.553Z,96730.72
2023-11-05T08:34:11.479Z,96733.81
2023-11-05T08:36:37.693Z,96734.84
2023-11-05T08:39:03.884Z,96743.09
2023-11-05T08:41:30.052Z,96747.75
2023-11-05T08:43:56.282Z,96746.09
2023-11-05T08:46:22.494Z,96750.34
2023-11-05T08:48:48.871Z,96752.25
2023-11-05T08:51:15.105Z,96762.19
2023-11-05T08:53:41.321Z,96773.69
2023-11-05T08:56:07.493Z,96772.56
2023-11-05T08:58:33.718Z,96776.59
2023-11-05T09:00:59.938Z,96784.94
2023-11-05T09:03:26.266Z,96783.72
2023-11-05T09:05:52.448Z,96784.94
2023-11-05T09:08:18.616Z,96790.53
2023-11-05T09:10:44.827Z,96788.19
2023-11-05T09:13:11.086Z,96807.31
2023-11-05T09:15:37.255Z,96807.38
2023-11-05T09:18:03.502Z,96809.78
2023-11-05T09:20:32.294Z,96820.09
2023-11-05T09:22:59.929Z,96826.47
2023-11-05T09:25:26.171Z,96829.19
2023-11-05T09:27:52.358Z,96839.50
2023-11-05T09:30:18.551Z,96835.94
2023-11-05T09:32:44.971Z,96849.44
2023-11-05T09:35:11.374Z,96851.00
2023-11-05T09:37:37.601Z,96849.38
2023-11-05T09:40:03.816Z,96854.09
2023-11-05T09:42:29.982Z,96856.72
2023-11-05T09:44:56.147Z,96857.34
2023-11-05T09:47:22.352Z,96865.91
2023-11-05T09:49:48.625Z,96867.75
2023-11-05T09:52:14.919Z,96872.38
2023-11-05T09:54:41.238Z,96874.59
2023-11-05T09:57:07.527Z,96882.66
2023-11-05T09:59:33.754Z,96890.72
2023-11-05T10:01:59.916Z,96893.28
2023-11-05T10:04:26.172Z,96905.28
2023-11-05T10:06:52.405Z,96902.50
2023-11-05T10:09:18.602Z,96901.34
2023-11-05T10:11:44.795Z,96901.38
2023-11-05T10:14:10.996Z,96911.63
2023-11-05T10:16:37.196Z,96907.22
2023-11-05T10:19:03.387Z,96913.53
2023-11-05T10:21:29.648Z,96920.75
2023-11-05T10:23:55.939Z,96916.88
2023-11-05T10:26:22.159Z,96919.34
2023-11-05T10:28:48.445Z,96926.78
2023-11-05T10:31:14.712Z,96928.09
2023-11-05T10:33:41.122Z,96931.03
2023-11-05T10:36:07.370Z,96932.72
2023-11-05T10:38:33.610Z,96934.28
2023-11-05T10:40:59.937Z,96930.06
2023-11-05T10:43:26.294Z,96948.00
2023-11-05T10:45:52.582Z,96945.69
2023-11-05T10:48:18.918Z,96959.28
2023-11-05T10:50:45.161Z,96967.28
2023-11-05T10:53:11.405Z,96968.91
2023-11-05T10:55:37.868Z,96965.75
2023-11-05T10:58:14.258Z,96985.75
2023-11-05T11:00:47.071Z,96979.44
2023-11-05T11:03:13.365Z,96974.84
2023-11-05T11:05:39.704Z,96994.81
2023-11-05T11:08:05.972Z,96994.09
2023-11-05T11:10:32.216Z,97008.47
2023-11-05T11:12:58.759Z,97000.59
2023-11-05T11:15:24.973Z,97018.09
2023-11-05T11:17:51.211Z,97013.75
2023-11-05T11:20:17.444Z,97016.53
2023-11-05T11:22:43.686Z,97028.41
2023-11-05T11:25:09.940Z,97027.63
2023-11-05T11:27:36.158Z,97031.16
2023-11-05T11:30:02.401Z,97034.72
2023-11-05T11:32:28.635Z,97030.69
2023-11-05T11:34:54.905Z,97029.47
2023-11-05T11:37:21.234Z,97045.66
2023-11-05T11:39:47.476Z,97049.13
2023-11-05T11:42:13.717Z,97046.63
2023-11-05T11:44:39.922Z,97051.69
2023-11-05T11:47:06.249Z,97048.09
2023-11-05T11:49:32.457Z,97055.97
2023-11-05T11:51:58.674Z,97060.19
2023-11-05T11:54:24.978Z,97061.31
2023-11-05T11:56:51.240Z,97051.44
2023-11-05T11:59:17.403Z,97064.22
2023-11-05T12:01:43.685Z,97077.47
2023-11-05T12:04:09.922Z,97080.75
2023-11-05T12:06:36.137Z,97079.22
2023-11-05T12:09:02.324Z,97088.03
2023-11-05T12:11:28.517Z,97085.31
2023-11-05T12:13:54.712Z,97105.72
2023-11-05T12:16:20.941Z,97118.88
2023-11-05T12:18:47.159Z,97121.28
2023-11-05T12:21:13.356Z,97143.16
2023-11-05T12:23:39.631Z,97149.53
2023-11-05T12:26:05.867Z,97151.09
2023-11-05T12:28:32.022Z,97155.47
2023-11-05T12:30:58.220Z,97160.63
2023-11-05T12:33:24.415Z,97182.44
2023-11-05T12:35:50.610Z,97171.31
2023-11-05T12:38:16.807Z,97193.94
2023-11-05T12:40:45.395Z,97204.66
2023-11-05T12:43:12.854Z,97221.69
2023-11-05T12:45:39.018Z,97238.69
2023-11-05T12:48:05.292Z,97227.09
2023-11-05T12:50:31.500Z,97239.72
2023-11-05T12:52:57.719Z,97246.34
2023-11-05T12:55:23.902Z,97258.59
2023-11-05T12:57:50.122Z,97260.53
2023-11-05T13:00:16.318Z,97256.53
2023-11-05T13:02:42.701Z,97254.97
2023-11-05T13:05:09.161Z,97280.75
2023-11-05T13:07:35.472Z,97284.34
2023-11-05T13:10:01.672Z,97283.16
2023-11-05T13:12:27.901Z,97294.25
2023-11-05T13:14:54.079Z,97296.25
2023-11-05T13:17:20.274Z,97308.97
2023-11-05T13:19:46.440Z,97313.81
2023-11-05T13:22:12.667Z,97298.75
2023-11-05T13:24:38.859Z,97334.81
2023-11-05T13:27:05.067Z,97330.50
2023-11-05T13:29:31.279Z,97322.56
2023-11-05T13:31:57.515Z,97346.06
2023-11-05T13:34:23.729Z,97329.41
2023-11-05T13:36:49.970Z,97351.22
2023-11-05T13:39:16.154Z,97372.63
2023-11-05T13:41:42.322Z,97348.06
2023-11-05T13:44:08.597Z,97370.69
2023-11-05T13:46:34.930Z,97383.00
2023-11-05T13:49:01.178Z,97394.09
2023-11-05T13:51:27.465Z,97396.88
2023-11-05T13:53:53.646Z,97392.13
2023-11-05T13:56:19.797Z,97401.69
2023-11-05T13:58:46.013Z,97410.78
2023-11-05T14:01:12.205Z,97404.84
2023-11-05T14:03:38.395Z,97416.41
2023-11-05T14:06:04.586Z,97421.19
2023-11-05T14:08:30.780Z,97441.75
2023-11-05T14:10:56.969Z,97439.44
2023-11-05T14:13:23.285Z,97441.00
2023-11-05T14:15:49.474Z,97454.09
2023-11-05T14:18:15.757Z,97466.38
2023-11-05T14:20:41.977Z,97463.63
2023-11-05T14:23:08.153Z,97449.78
2023-11-05T14:25:34.402Z,97480.75
2023-11-05T14:28:00.613Z,97475.22
2023-11-05T14:30:26.785Z,97499.03
2023-11-05T14:32:52.972Z,97502.59
2023-11-05T14:35:19.524Z,97497.41
2023-11-05T14:37:45.701Z,97510.06
2023-11-05T14:40:11.916Z,97523.16
2023-11-05T14:42:38.088Z,97529.47
2023-11-05T14:45:12.098Z,97542.97
2023-11-05T14:47:46.000Z,97556.03
2023-11-05T14:50:12.577Z,97561.22
2023-11-05T14:52:39.022Z,97571.91
2023-11-05T14:55:05.255Z,97576.69
2023-11-05T14:57:31.441Z,97591.75
2023-11-05T14:59:57.615Z,97582.19
2023-11-05T15:02:23.798Z,97601.19
2023-11-05T15:04:50.079Z,97609.81
2023-11-05T15:07:16.307Z,97605.81
2023-11-05T15:09:42.479Z,97607.41
2023-11-05T15:12:18.750Z,97618.91
2023-11-05T15:14:47.521Z,97626.03
2023-11-05T15:17:13.703Z,97624.06
2023-11-05T15:19:39.897Z,97638.75
2023-11-05T15:22:06.133Z,97636.81
2023-11-05T15:24:32.302Z,97640.72
2023-11-05T15:26:58.520Z,97649.41
2023-11-05T15:29:24.710Z,97652.53
2023-11-05T15:31:50.998Z,97670.78
2023-11-05T15:34:17.194Z,97669.91
2023-11-05T15:36:43.434Z,97696.09
2023-11-05T15:39:09.610Z,97694.13
2023-11-05T15:41:35.793Z,97686.63
2023-11-05T15:44:02.010Z,97690.16
2023-11-05T15:46:28.329Z,97723.56
2023-11-05T15:48:54.592Z,97715.50
2023-11-05T15:51:20.800Z,97704.41
2023-11-05T15:53:46.966Z,97729.03
2023-11-05T15:56:13.157Z,97757.97
2023-11-05T15:58:39.420Z,97749.63
2023-11-05T16:01:05.640Z,97755.53
2023-11-05T16:03:31.974Z,97777.59
2023-11-05T16:05:58.307Z,97767.81
2023-11-05T16:08:24.528Z,97773.25
2023-11-05T16:10:50.750Z,97791.81
2023-11-05T16:13:18.838Z,97807.25
2023-11-05T16:15:46.615Z,97811.88
2023-11-05T16:18:12.895Z,97829.31
2023-11-05T16:20:39.068Z,97826.44
2023-11-05T16:23:05.331Z,97819.28
2023-11-05T16:25:31.558Z,97858.88
2023-11-05T16:27:57.773Z,97854.94
2023-11-05T16:30:23.978Z,97860.91
2023-11-05T16:32:50.286Z,97861.59
2023-11-05T16:35:16.564Z,97874.34
2023-11-05T16:37:42.759Z,97886.63
2023-11-05T16:40:08.958Z,97901.22
2023-11-05T16:42:35.164Z,97900.41
2023-11-05T16:45:01.336Z,97898.09
2023-11-05T16:47:27.615Z,97907.94
2023-11-05T16:49:53.916Z,97909.13
2023-11-05T16:52:20.100Z,97867.13
2023-11-05T16:54:46.261Z,97929.81
2023-11-05T16:57:12.463Z,97936.19
2023-11-05T16:59:38.630Z,97946.53
2023-11-05T17:02:04.931Z,97953.84
2023-11-05T17:04:31.285Z,97949.38
2023-11-05T17:06:57.549Z,97964.84
2023-11-05T17:09:23.750Z,97959.31
2023-11-05T17:11:49.934Z,97975.22
2023-11-05T17:14:16.168Z,97985.72
2023-11-05T17:16:44.028Z,97985.72
2023-11-05T17:19:12.329Z,97983.78
2023-11-05T17:21:38.486Z,98000.16
2023-11-05T17:24:04.667Z,98005.72
2023-11-05T17:26:30.869Z,98013.66
2023-11-05T17:28:57.118Z,98017.25
2023-11-05T17:31:23.301Z,98022.41
2023-11-05T17:33:49.530Z,98043.50
2023-11-05T17:36:15.864Z,98044.84
2023-11-05T17:38:42.083Z,98055.16
2023-11-05T17:41:08.299Z,98056.81
2023-11-05T17:43:34.505Z,98071.19
2023-11-05T17:46:00.690Z,98067.31
2023-11-05T17:48:26.983Z,98080.06
2023-11-05T17:50:53.222Z,98087.72
2023-11-05T17:53:19.411Z,98091.41
2023-11-05T17:55:45.591Z,98099.31
2023-11-05T17:58:11.800Z,98104.41
2023-11-05T18:00:37.991Z,98106.56
2023-11-05T18:03:04.218Z,98118.44
2023-11-05T18:05:30.542Z,98130.28
2023-11-05T18:07:57.394Z,98128.72
2023-11-05T18:10:28.463Z,98123.84
2023-11-05T18:12:54.720Z,98132.13
2023-11-05T18:15:21.061Z,98146.34
2023-11-05T18:17:47.298Z,98140.44
2023-11-05T18:20:13.636Z,98161.41
2023-11-05T18:22:39.947Z,98164.31
2023-11-05T18:25:06.214Z,98157.47
2023-11-05T18:27:32.368Z,98182.44
2023-11-05T18:29:58.536Z,98188.31
2023-11-05T18:32:24.752Z,98186.97
2023-11-05T18:34:51.001Z,98190.25
2023-11-05T18:37:17.223Z,98203.78
2023-11-05T18:39:43.413Z,98203.50
2023-11-05T18:42:09.637Z,98193.13
2023-11-05T18:44:35.817Z,98182.09
2023-11-05T18:47:02.017Z,98212.56
2023-11-05T18:49:28.269Z,98224.81
2023-11-05T18:51:56.407Z,98221.66
2023-11-05T18:54:23.871Z,98227.69
2023-11-05T18:56:50.175Z,98237.19
2023-11-05T18:59:16.358Z,98250.59
2023-11-05T19:01:42.594Z,98251.41
2023-11-05T19:04:08.904Z,98257.72
2023-11-05T19:06:35.142Z,98256.09
2023-11-05T19:09:01.458Z,98263.69
2023-11-05T19:11:27.655Z,98276.72
2023-11-05T19:14:06.365Z,98272.47
2023-11-05T19:16:39.496Z,98285.91
2023-11-05T19:19:05.788Z,98276.84
2023-11-05T19:21:32.069Z,98276.13
2023-11-05T19:23:58.259Z,98299.59
2023-11-05T19:26:24.505Z,98303.63
2023-11-05T19:28:50.701Z,98302.59
2023-11-05T19:31:16.896Z,98305.78
2023-11-05T19:33:43.178Z,98309.16
2023-11-05T19:36:09.431Z,98317.06
2023-11-05T19:38:35.588Z,98326.28
2023-11-05T19:41:01.819Z,98342.66
2023-11-05T19:43:28.032Z,98343.47
2023-11-05T19:45:54.210Z,98343.38
2023-11-05T19:48:20.382Z,98362.56
2023-11-05T19:50:46.638Z,98375.28
2023-11-05T19:53:15.060Z,98385.56
2023-11-05T19:55:42.517Z,98401.00
2023-11-05T19:58:09.549Z,98396.53
2023-11-05T20:00:36.818Z,98398.94
2023-11-05T20:03:03.181Z,98416.34
2023-11-05T20:05:29.552Z,98418.81
2023-11-05T20:07:55.832Z,98427.16
2023-11-05T20:10:22.026Z,98434.69
2023-11-05T20:12:48.234Z,98424.53
2023-11-05T20:15:14.408Z,98447.91
2023-11-05T20:17:40.616Z,98432.75
2023-11-05T20:20:06.951Z,98446.13
2023-11-05T20:22:33.123Z,98454.81
2023-11-05T20:24:59.312Z,98457.88
2023-11-05T20:27:25.569Z,98468.09
2023-11-05T20:29:51.804Z,98452.22
2023-11-05T20:32:18.045Z,98471.13
2023-11-05T20:34:44.318Z,98476.66
2023-11-05T20:37:10.587Z,98491.81
2023-11-05T20:39:36.772Z,98500.44
2023-11-05T20:42:02.983Z,98499.50
2023-11-05T20:44:29.157Z,98493.06
2023-11-05T20:46:55.355Z,98503.72
2023-11-05T20:49:21.562Z,98518.97
2023-11-05T20:51:48.244Z,98500.28
2023-11-05T20:54:14.484Z,98526.75
2023-11-05T20:56:40.719Z,98514.78
2023-11-05T20:59:06.998Z,98533.84
2023-11-05T21:01:33.211Z,98529.91
2023-11-05T21:03:59.399Z,98521.13
2023-11-05T21:06:25.567Z,98533.31
2023-11-05T21:08:51.760Z,98547.19
2023-11-05T21:11:18.033Z,98552.81
2023-11-05T21:13:45.408Z,98548.97
2023-11-05T21:16:11.636Z,98552.28
2023-11-05T21:18:37.896Z,98573.34
2023-11-05T21:21:04.212Z,98566.41
2023-11-05T21:23:30.392Z,98564.97
2023-11-05T21:25:56.612Z,98572.13
2023-11-05T21:28:22.823Z,98573.28
2023-11-05T21:30:49.063Z,98585.50
2023-11-05T21:33:15.265Z,98594.72
2023-11-05T21:35:41.500Z,98592.16
2023-11-05T21:38:07.704Z,98588.22
2023-11-05T21:40:33.934Z,98592.50
2023-11-05T21:43:00.077Z,98597.91
2023-11-05T21:45:26.273Z,98620.56
2023-11-05T21:47:52.554Z,98629.59
2023-11-05T21:50:18.834Z,98621.25
2023-11-05T21:52:45.135Z,98636.69
2023-11-05T21:55:11.357Z,98628.91
2023-11-05T21:57:37.529Z,98625.56
2023-11-05T22:00:03.738Z,98626.13
2023-11-05T22:02:29.890Z,98634.25
2023-11-05T22:04:56.168Z,98628.25
2023-11-05T22:07:22.428Z,98630.13
2023-11-05T22:09:49.625Z,98642.84
2023-11-05T22:12:15.983Z,98662.75
2023-11-05T22:14:42.934Z,98657.91
2023-11-05T22:17:11.803Z,98659.53
2023-11-05T22:19:38.220Z,98649.03
2023-11-05T22:22:06.985Z,98664.78
2023-11-05T22:24:33.284Z,98664.56
2023-11-05T22:26:59.675Z,98672.56
2023-11-05T22:29:28.247Z,98670.75
2023-11-05T22:31:54.692Z,98683.25
2023-11-05T22:34:20.981Z,98678.38
2023-11-05T22:36:47.420Z,98686.13
2023-11-05T22:39:13.678Z,98693.94
2023-11-05T22:41:39.941Z,98688.38
2023-11-05T22:44:06.222Z,98702.13
2023-11-05T22:46:32.538Z,98700.16
2023-11-05T22:48:58.848Z,98705.69
2023-11-05T22:51:25.184Z,98708.03
2023-11-05T22:53:51.444Z,98712.31
2023-11-05T22:56:17.864Z,98724.56
2023-11-05T22:58:44.260Z,98719.72
2023-11-05T23:01:10.487Z,98732.78
2023-11-05T23:03:36.706Z,98733.13
2023-11-05T23:06:02.922Z,98730.81
2023-11-05T23:08:29.332Z,98736.38
2023-11-05T23:10:55.532Z,98733.25
2023-11-05T23:13:21.801Z,98751.53
2023-11-05T23:15:48.179Z,98749.66
2023-11-05T23:18:14.536Z,98744.09
2023-11-05T23:20:40.767Z,98760.41
2023-11-05T23:23:07.060Z,98757.28
2023-11-05T23:25:38.650Z,98758.88
2023-11-05T23:28:07.508Z,98771.97
2023-11-05T23:30:33.668Z,98763.06
2023-11-05T23:33:00.267Z,98766.28
2023-11-05T23:35:26.579Z,98766.28
2023-11-05T23:37:52.842Z,98767.56
2023-11-05T23:40:19.048Z,98754.03
2023-11-05T23:42:45.243Z,98765.72
2023-11-05T23:45:11.419Z,98775.97
2023-11-05T23:47:37.673Z,98758.78
2023-11-05T23:50:04.127Z,98766.28
2023-11-05T23:52:30.396Z,98776.56
2023-11-05T23:54:56.604Z,98781.31
2023-11-05T23:57:24.565Z,98780.41
2023-11-05T23:59:52.960Z,98782.03
